sensor_id;sensor_type;location;lat;lon;timestamp;pressure;altitude;pressure_sealevel;temperature;humidity
71956;BME280;59829;50.562;6.258;2023-04-16T00:14:44;96049.25;;;5.97;100.00
71956;BME280;59829;50.562;6.258;2023-04-16T00:44:45;96053.59;;;5.95;100.00
71956;BME280;59829;50.562;6.258;2023-04-16T01:14:46;96049.81;;;5.86;100.00
71956;BME280;59829;50.562;6.258;2023-04-16T01:44:46;96047.38;;;5.85;100.00
71956;BME280;59829;50.562;6.258;2023-04-16T02:14:46;96065.44;;;5.80;100.00
71956;BME280;59829;50.562;6.258;2023-04-16T02:44:47;96057.53;;;5.85;100.00
71956;BME280;59829;50.562;6.258;2023-04-16T03:14:49;96056.91;;;6.11;100.00
71956;BME280;59829;50.562;6.258;2023-04-16T03:44:50;96075.22;;;6.02;100.00
71956;BME280;59829;50.562;6.258;2023-04-16T04:14:52;96082.50;;;5.78;100.00
71956;BME280;59829;50.562;6.258;2023-04-16T04:44:53;96093.56;;;5.93;100.00
71956;BME280;59829;50.562;6.258;2023-04-16T05:14:53;96104.91;;;6.01;100.00
71956;BME280;59829;50.562;6.258;2023-04-16T05:44:53;96132.63;;;6.06;100.00
71956;BME280;59829;50.562;6.258;2023-04-16T06:14:53;96156.81;;;6.13;100.00
71956;BME280;59829;50.562;6.258;2023-04-16T06:44:54;96174.63;;;6.43;100.00
71956;BME280;59829;50.562;6.258;2023-04-16T07:14:54;96193.75;;;6.64;100.00
71956;BME280;59829;50.562;6.258;2023-04-16T07:44:55;96204.56;;;6.82;100.00
71956;BME280;59829;50.562;6.258;2023-04-16T08:14:56;96237.84;;;6.93;100.00
71956;BME280;59829;50.562;6.258;2023-04-16T08:45:13;96266.19;;;7.17;100.00
71956;BME280;59829;50.562;6.258;2023-04-16T09:15:15;96288.22;;;7.33;100.00
71956;BME280;59829;50.562;6.258;2023-04-16T09:45:15;96308.16;;;7.69;100.00
71956;BME280;59829;50.562;6.258;2023-04-16T10:15:15;96322.72;;;7.81;100.00
71956;BME280;59829;50.562;6.258;2023-04-16T10:45:16;96323.25;;;8.00;100.00
71956;BME280;59829;50.562;6.258;2023-04-16T11:15:16;96337.06;;;7.96;100.00
71956;BME280;59829;50.562;6.258;2023-04-16T11:45:20;96347.66;;;7.90;100.00
71956;BME280;59829;50.562;6.258;2023-04-16T12:15:20;96364.31;;;7.96;100.00
71956;BME280;59829;50.562;6.258;2023-04-16T12:45:21;96375.19;;;7.85;100.00
71956;BME280;59829;50.562;6.258;2023-04-16T13:15:21;96370.34;;;8.50;100.00
71956;BME280;59829;50.562;6.258;2023-04-16T13:45:22;96355.69;;;8.66;100.00
71956;BME280;59829;50.562;6.258;2023-04-16T14:15:23;96366.94;;;8.91;100.00
71956;BME280;59829;50.562;6.258;2023-04-16T14:45:26;96376.53;;;9.00;100.00
71956;BME280;59829;50.562;6.258;2023-04-16T15:15:28;96371.88;;;9.19;100.00
71956;BME280;59829;50.562;6.258;2023-04-16T15:45:29;96366.97;;;9.03;100.00
71956;BME280;59829;50.562;6.258;2023-04-16T16:15:31;96365.09;;;8.93;100.00
71956;BME280;59829;50.562;6.258;2023-04-16T16:45:31;96366.22;;;8.89;100.00
71956;BME280;59829;50.562;6.258;2023-04-16T17:15:31;96382.50;;;8.73;100.00
71956;BME280;59829;50.562;6.258;2023-04-16T17:45:32;96409.72;;;8.60;100.00
71956;BME280;59829;50.562;6.258;2023-04-16T18:15:36;96416.69;;;8.44;100.00
71956;BME280;59829;50.562;6.258;2023-04-16T18:45:40;96432.00;;;8.44;100.00
71956;BME280;59829;50.562;6.258;2023-04-16T19:15:41;96447.50;;;8.55;100.00
71956;BME280;59829;50.562;6.258;2023-04-16T19:45:45;96441.66;;;8.25;100.00
71956;BME280;59829;50.562;6.258;2023-04-16T20:15:50;96449.84;;;8.15;100.00
71956;BME280;59829;50.562;6.258;2023-04-16T20:45:50;96447.34;;;8.01;100.00
71956;BME280;59829;50.562;6.258;2023-04-16T21:15:51;96436.03;;;8.05;100.00
71956;BME280;59829;50.562;6.258;2023-04-16T21:45:52;96438.97;;;7.99;100.00
71956;BME280;59829;50.562;6.258;2023-04-16T22:15:53;96436.94;;;7.90;100.00
71956;BME280;59829;50.562;6.258;2023-04-16T22:46:03;96422.72;;;7.86;100.00
71956;BME280;59829;50.562;6.258;2023-04-16T23:16:05;96411.59;;;7.73;100.00
71956;BME280;59829;50.562;6.258;2023-04-16T23:46:06;96418.06;;;7.78;100.00
